Time;durP1;ratioP1;P1;durP2;ratioP2;P2;SDS_P1;SDS_P2;PMS_P1;PMS_P2;Temp;Humidity;BMP_temperature;BMP_pressure;BME280_temperature;BME280_humidity;BME280_pressure;Samples;Min_cycle;Max_cycle;Signal;HPM_P1;HPM_P2
2022/08/16 00:00:34;;;;;;;4.93;2.92;;;23.20;92.90;;;;;;10010519;28;20121;-66
2022/08/16 00:05:25;;;;;;;6.57;2.83;;;23.10;93.00;;;;;;10004890;28;20547;-68
2022/08/16 00:10:17;;;;;;;3.22;2.92;;;23.30;93.00;;;;;;10014653;28;20615;-67
2022/08/16 00:15:14;;;;;;;4.78;2.85;;;23.20;92.90;;;;;;10001588;28;20038;-66
2022/08/16 00:20:07;;;;;;;4.32;3.03;;;23.20;93.10;;;;;;10015458;28;20046;-69
2022/08/16 00:24:58;;;;;;;5.38;3.03;;;23.20;93.10;;;;;;9997687;28;20057;-67
2022/08/16 00:29:49;;;;;;;4.80;3.25;;;23.30;93.20;;;;;;10015048;28;20512;-66
2022/08/16 00:34:40;;;;;;;4.07;2.72;;;23.30;93.10;;;;;;10014116;28;20030;-65
2022/08/16 00:39:31;;;;;;;3.80;2.83;;;23.20;93.30;;;;;;10021639;28;20053;-66
2022/08/16 00:44:22;;;;;;;3.90;3.30;;;23.10;93.30;;;;;;10014575;28;20026;-66
2022/08/16 00:49:13;;;;;;;3.83;3.10;;;23.00;93.60;;;;;;10014046;28;20034;-66
2022/08/16 00:54:05;;;;;;;4.20;3.05;;;23.00;93.70;;;;;;10017164;28;20092;-68
2022/08/16 00:58:56;;;;;;;5.10;2.90;;;22.90;93.80;;;;;;10014136;28;20056;-66
2022/08/16 01:03:50;;;;;;;5.40;3.53;;;22.90;93.90;;;;;;10013817;28;20392;-66
2022/08/16 01:08:43;;;;;;;4.78;3.22;;;22.90;93.90;;;;;;10012461;28;20053;-67
2022/08/16 01:13:37;;;;;;;4.60;3.35;;;22.90;93.90;;;;;;10012954;28;20030;-66
2022/08/16 01:18:32;;;;;;;4.20;2.90;;;22.70;94.30;;;;;;10012538;28;20535;-66
2022/08/16 01:23:30;;;;;;;4.30;3.72;;;22.80;94.30;;;;;;10012548;28;20032;-67
2022/08/16 01:28:25;;;;;;;4.20;3.80;;;22.90;94.30;;;;;;10012063;28;20275;-67
2022/08/16 01:33:17;;;;;;;5.07;2.67;;;23.00;94.10;;;;;;10012797;28;20416;-66
2022/08/16 01:38:16;;;;;;;6.20;4.03;;;22.80;94.30;;;;;;10019757;28;20050;-66
2022/08/16 01:43:07;;;;;;;5.10;2.90;;;22.70;94.80;;;;;;10012021;28;20026;-67
2022/08/16 01:47:57;;;;;;;4.35;3.28;;;22.70;94.60;;;;;;10011865;28;20022;-67
2022/08/16 01:52:49;;;;;;;8.98;3.28;;;22.50;94.70;;;;;;10012734;28;20512;-68
2022/08/16 01:57:39;;;;;;;3.50;3.00;;;22.40;95.00;;;;;;10016113;28;20419;-67
2022/08/16 02:02:30;;;;;;;4.10;2.83;;;22.40;95.00;;;;;;10012398;28;20052;-66
2022/08/16 02:07:21;;;;;;;5.00;3.58;;;22.50;95.10;;;;;;10011683;28;20101;-67
2022/08/16 02:12:12;;;;;;;7.53;3.35;;;22.50;95.00;;;;;;10016814;28;20034;-66
2022/08/16 02:17:06;;;;;;;3.50;3.20;;;22.50;95.10;;;;;;10018599;28;20088;-67
2022/08/16 02:21:58;;;;;;;4.80;3.30;;;22.50;95.20;;;;;;10018066;28;20038;-66
2022/08/16 02:26:50;;;;;;;4.15;2.47;;;22.70;95.10;;;;;;10018979;28;20018;-65
2022/08/16 02:31:41;;;;;;;3.65;2.80;;;22.60;95.20;;;;;;10000921;28;20022;-68
2022/08/16 02:36:31;;;;;;;4.32;3.10;;;22.40;95.50;;;;;;10020839;28;20589;-67
2022/08/16 02:41:22;;;;;;;5.30;2.88;;;22.30;95.60;;;;;;10023609;28;20076;-67
2022/08/16 02:46:13;;;;;;;6.10;3.45;;;22.30;95.60;;;;;;10000495;28;20041;-68
2022/08/16 02:51:05;;;;;;;3.88;3.20;;;22.30;95.60;;;;;;10018407;28;20069;-67
2022/08/16 02:55:55;;;;;;;6.03;3.65;;;22.20;95.60;;;;;;10017712;28;20488;-68
2022/08/16 03:00:46;;;;;;;6.30;3.28;;;22.20;95.70;;;;;;10017403;28;20045;-67
2022/08/16 03:05:37;;;;;;;3.35;2.88;;;22.20;95.80;;;;;;9999024;28;20022;-68
2022/08/16 03:10:28;;;;;;;4.97;3.40;;;22.00;96.00;;;;;;10014842;28;20413;-69
2022/08/16 03:15:19;;;;;;;4.63;3.17;;;21.90;96.00;;;;;;10015496;28;20022;-68
2022/08/16 03:20:13;;;;;;;5.72;3.15;;;21.90;96.10;;;;;;10016365;28;20046;-68
2022/08/16 03:25:07;;;;;;;4.18;3.08;;;21.80;96.30;;;;;;10016758;28;20595;-65
2022/08/16 03:30:09;;;;;;;6.28;3.38;;;21.90;96.20;;;;;;10016624;28;20217;-67
2022/08/16 03:34:59;;;;;;;5.85;3.13;;;21.90;96.40;;;;;;10015806;28;20119;-66
2022/08/16 03:39:50;;;;;;;6.47;3.67;;;21.90;96.30;;;;;;10017931;28;20549;-67
2022/08/16 03:44:42;;;;;;;4.05;3.05;;;21.90;96.30;;;;;;10015127;28;20035;-66
2022/08/16 03:49:34;;;;;;;4.88;3.47;;;21.80;96.50;;;;;;10015148;28;20381;-66
2022/08/16 03:54:25;;;;;;;6.65;3.58;;;21.70;96.50;;;;;;10015755;28;20282;-66
2022/08/16 03:59:16;;;;;;;4.45;3.60;;;21.60;96.80;;;;;;10014961;28;20518;-67
2022/08/16 04:04:07;;;;;;;5.20;3.38;;;21.60;96.80;;;;;;10015756;28;20030;-67
2022/08/16 04:08:57;;;;;;;4.50;3.45;;;21.40;97.00;;;;;;10015875;28;20037;-67
2022/08/16 04:13:48;;;;;;;5.95;3.95;;;21.40;97.10;;;;;;10015923;28;20034;-68
2022/08/16 04:18:41;;;;;;;5.95;4.05;;;21.40;97.10;;;;;;10016460;28;20219;-66
2022/08/16 04:23:32;;;;;;;9.05;3.85;;;21.40;97.10;;;;;;10015498;28;20022;-66
2022/08/16 04:28:22;;;;;;;4.75;3.60;;;21.50;97.20;;;;;;10014705;28;20523;-67
2022/08/16 04:33:13;;;;;;;3.83;3.03;;;21.40;97.30;;;;;;10014094;28;20029;-67
2022/08/16 04:38:04;;;;;;;5.88;3.83;;;21.30;97.40;;;;;;10016412;28;20046;-67
2022/08/16 04:42:55;;;;;;;4.72;3.83;;;21.30;97.60;;;;;;9998018;28;20026;-68
2022/08/16 04:47:46;;;;;;;5.53;4.05;;;21.30;97.60;;;;;;10014630;28;20022;-67
2022/08/16 04:52:37;;;;;;;5.78;3.65;;;21.30;97.70;;;;;;9996094;28;20022;-67
2022/08/16 04:57:28;;;;;;;5.03;3.28;;;21.20;97.80;;;;;;10014355;28;20460;-66
2022/08/16 05:02:19;;;;;;;5.13;3.90;;;21.00;98.20;;;;;;10013423;28;20052;-67
2022/08/16 05:07:09;;;;;;;6.45;4.07;;;21.10;98.10;;;;;;10005352;28;20038;-67
2022/08/16 05:12:00;;;;;;;6.97;3.85;;;21.10;98.10;;;;;;10006155;28;20038;-67
2022/08/16 05:16:50;;;;;;;5.90;3.97;;;21.30;98.10;;;;;;10012431;28;20412;-67
2022/08/16 05:21:41;;;;;;;7.53;4.47;;;21.20;98.20;;;;;;10011877;28;20058;-66
2022/08/16 05:26:33;;;;;;;6.43;3.80;;;21.10;98.40;;;;;;10013313;28;20352;-66
2022/08/16 05:31:26;;;;;;;5.88;4.55;;;21.20;98.30;;;;;;10016012;28;20092;-68
2022/08/16 05:36:16;;;;;;;4.75;3.88;;;21.30;98.20;;;;;;9992517;28;20050;-68
2022/08/16 05:41:07;;;;;;;4.70;3.80;;;21.40;98.20;;;;;;10011717;28;20042;-66
2022/08/16 05:45:59;;;;;;;4.68;3.53;;;21.50;98.20;;;;;;10013846;28;20018;-67
2022/08/16 05:50:50;;;;;;;5.93;3.58;;;21.70;98.00;;;;;;10015587;28;20515;-68
2022/08/16 05:55:40;;;;;;;6.70;4.35;;;21.80;98.00;;;;;;10019807;28;20026;-67
2022/08/16 06:00:31;;;;;;;5.25;3.92;;;22.00;97.80;;;;;;10019587;28;20030;-68
2022/08/16 06:05:22;;;;;;;7.60;3.70;;;22.10;97.70;;;;;;10019771;28;20049;-67
2022/08/16 06:10:13;;;;;;;5.55;3.58;;;22.10;97.80;;;;;;10020209;28;20062;-66
2022/08/16 06:15:08;;;;;;;5.22;3.65;;;22.40;97.70;;;;;;10001940;28;20399;-68
2022/08/16 06:19:59;;;;;;;4.07;3.53;;;22.60;97.50;;;;;;10019176;28;20412;-68
2022/08/16 06:24:49;;;;;;;3.95;3.13;;;22.80;97.50;;;;;;10012799;28;20044;-67
2022/08/16 06:29:40;;;;;;;6.13;4.93;;;22.80;97.50;;;;;;10006525;28;20038;-67
2022/08/16 06:34:31;;;;;;;7.25;3.92;;;22.90;97.60;;;;;;9999905;28;20245;-67
2022/08/16 06:39:22;;;;;;;6.25;3.88;;;22.90;97.20;;;;;;10026598;28;20050;-66
2022/08/16 06:44:12;;;;;;;5.47;4.20;;;23.10;97.10;;;;;;10018969;28;20029;-67
2022/08/16 06:49:06;;;;;;;8.40;5.00;;;23.10;96.90;;;;;;10018663;28;20030;-67
2022/08/16 06:53:56;;;;;;;8.10;4.82;;;23.10;96.90;;;;;;10019066;28;20026;-66
2022/08/16 06:58:47;;;;;;;4.38;3.70;;;22.90;96.90;;;;;;10000166;28;20148;-66
2022/08/16 07:03:38;;;;;;;5.57;3.65;;;22.70;96.90;;;;;;10016927;28;20503;-66
2022/08/16 07:08:29;;;;;;;4.60;3.65;;;22.80;96.80;;;;;;10017377;28;20022;-67
2022/08/16 07:13:20;;;;;;;4.75;4.03;;;23.00;96.50;;;;;;10017169;28;20072;-66
2022/08/16 07:18:11;;;;;;;6.32;3.85;;;23.10;96.40;;;;;;10017195;28;20037;-66
2022/08/16 07:23:01;;;;;;;4.80;3.65;;;23.30;96.30;;;;;;10017552;28;20021;-65
2022/08/16 07:27:52;;;;;;;5.55;3.85;;;23.50;96.00;;;;;;10016459;28;20024;-67
2022/08/16 07:32:43;;;;;;;6.70;3.70;;;23.40;96.00;;;;;;10016400;28;20128;-66
2022/08/16 07:37:34;;;;;;;5.03;4.00;;;23.40;96.10;;;;;;10023766;28;20061;-67
2022/08/16 07:42:24;;;;;;;5.03;3.83;;;23.50;96.00;;;;;;10015814;28;20463;-66
2022/08/16 07:47:15;;;;;;;4.80;3.13;;;23.60;95.90;;;;;;10015481;28;20026;-66
2022/08/16 07:52:06;;;;;;;6.85;3.75;;;23.70;95.80;;;;;;10015888;28;20037;-66
2022/08/16 07:56:57;;;;;;;3.83;3.42;;;23.70;95.80;;;;;;10015683;28;20094;-66
2022/08/16 08:01:48;;;;;;;4.13;3.70;;;23.80;95.70;;;;;;10014850;28;20034;-67
2022/08/16 08:06:39;;;;;;;6.05;4.03;;;24.00;95.50;;;;;;10014453;28;20492;-67
2022/08/16 08:11:30;;;;;;;6.40;3.78;;;24.00;95.50;;;;;;10004200;28;20383;-67
2022/08/16 08:16:21;;;;;;;6.82;3.53;;;24.20;95.30;;;;;;10013932;28;20022;-67
2022/08/16 08:21:12;;;;;;;7.82;3.53;;;24.50;95.10;;;;;;10014294;28;20374;-65
2022/08/16 08:26:03;;;;;;;4.88;4.05;;;24.60;95.00;;;;;;10011741;28;20030;-67
2022/08/16 08:30:54;;;;;;;7.55;3.78;;;24.60;94.90;;;;;;10002624;28;20136;-67
2022/08/16 08:35:44;;;;;;;6.63;4.15;;;24.60;94.90;;;;;;10013401;28;20508;-67
2022/08/16 08:40:35;;;;;;;4.93;4.20;;;24.60;94.80;;;;;;10014899;28;20054;-67
2022/08/16 08:45:27;;;;;;;4.45;3.38;;;24.80;94.60;;;;;;10014501;28;20026;-67
2022/08/16 08:50:18;;;;;;;5.68;3.65;;;24.90;94.40;;;;;;10015770;28;20058;-66
2022/08/16 08:55:11;;;;;;;6.55;4.85;;;24.90;94.30;;;;;;10013301;28;20049;-67
2022/08/16 09:00:03;;;;;;;6.45;4.80;;;25.00;94.10;;;;;;10014289;28;20488;-67
2022/08/16 09:04:54;;;;;;;6.00;4.22;;;25.20;93.80;;;;;;10014762;28;20025;-67
2022/08/16 09:09:45;;;;;;;4.88;4.25;;;25.30;93.60;;;;;;10014101;28;20121;-67
2022/08/16 09:14:38;;;;;;;7.07;4.32;;;25.50;93.40;;;;;;10014715;28;20492;-66
2022/08/16 09:19:28;;;;;;;6.40;4.10;;;25.40;93.30;;;;;;10014886;28;20084;-67
2022/08/16 09:24:19;;;;;;;5.43;4.28;;;25.40;93.20;;;;;;10015428;28;20037;-67
2022/08/16 09:29:10;;;;;;;5.13;4.32;;;25.60;92.90;;;;;;10012858;28;20068;-66
2022/08/16 09:34:01;;;;;;;8.32;4.38;;;25.80;92.80;;;;;;10012245;28;20018;-67
2022/08/16 09:38:52;;;;;;;4.78;4.18;;;25.80;92.50;;;;;;10020186;28;20480;-67
2022/08/16 09:43:45;;;;;;;5.00;4.53;;;25.80;92.30;;;;;;10012342;28;20323;-67
2022/08/16 09:48:40;;;;;;;5.80;4.75;;;25.70;92.10;;;;;;10012262;28;20353;-68
2022/08/16 09:53:31;;;;;;;4.90;4.07;;;25.60;92.00;;;;;;10012896;28;20030;-66
2022/08/16 09:58:24;;;;;;;4.97;4.10;;;25.70;91.90;;;;;;10012224;28;20018;-65
2022/08/16 10:03:16;;;;;;;6.23;4.43;;;26.20;91.40;;;;;;10011187;28;20451;-67
2022/08/16 10:08:08;;;;;;;9.23;4.10;;;26.70;91.10;;;;;;10013608;28;20036;-66
2022/08/16 10:13:11;;;;;;;4.63;4.00;;;27.00;90.80;;;;;;10011711;28;20033;-66
2022/08/16 10:18:06;;;;;;;7.28;4.47;;;27.20;90.40;;;;;;10011681;28;20042;-68
2022/08/16 10:22:56;;;;;;;6.00;3.88;;;27.20;90.30;;;;;;10012062;28;20179;-67
2022/08/16 10:27:48;;;;;;;4.00;3.60;;;27.10;90.30;;;;;;9998904;28;20430;-66
2022/08/16 10:32:38;;;;;;;4.57;3.70;;;27.10;90.00;;;;;;9997296;28;20034;-67
2022/08/16 10:37:30;;;;;;;5.90;4.03;;;27.50;89.30;;;;;;10026972;28;20056;-66
2022/08/16 10:42:21;;;;;;;3.72;3.20;;;27.60;88.20;;;;;;10019244;28;20056;-66
2022/08/16 10:47:12;;;;;;;8.55;4.72;;;27.50;87.60;;;;;;10020461;28;20208;-66
2022/08/16 10:52:03;;;;;;;5.50;3.92;;;27.40;87.20;;;;;;10019211;28;20280;-67
2022/08/16 10:56:54;;;;;;;5.90;3.67;;;27.60;86.60;;;;;;10018538;28;20383;-66
2022/08/16 11:01:45;;;;;;;8.95;3.58;;;27.70;85.70;;;;;;10017616;28;20038;-66
2022/08/16 11:06:36;;;;;;;6.70;4.35;;;27.80;84.90;;;;;;10017719;28;20021;-66
2022/08/16 11:11:26;;;;;;;6.95;4.07;;;27.90;84.10;;;;;;10015589;28;20038;-66
2022/08/16 11:16:18;;;;;;;4.53;4.13;;;28.00;83.60;;;;;;10015750;28;20045;-65
2022/08/16 11:21:09;;;;;;;4.70;3.83;;;28.00;83.10;;;;;;10018996;28;20484;-66
2022/08/16 11:26:00;;;;;;;5.97;3.28;;;28.20;82.70;;;;;;10013046;28;20018;-67
2022/08/16 11:30:51;;;;;;;5.25;3.25;;;28.40;81.80;;;;;;10005349;28;20042;-65
2022/08/16 11:35:42;;;;;;;5.28;3.33;;;28.20;81.50;;;;;;10016847;28;20018;-67
2022/08/16 11:40:59;;;;;;;4.50;2.95;;;28.00;81.50;;;;;;10023703;28;20138;-66
2022/08/16 11:45:50;;;;;;;4.63;3.42;;;28.10;80.30;;;;;;10012579;28;20034;-66
2022/08/16 11:50:42;;;;;;;4.53;2.92;;;28.30;79.90;;;;;;10015373;28;20030;-65
2022/08/16 11:55:33;;;;;;;3.25;2.97;;;28.40;79.40;;;;;;10015346;28;20025;-66
2022/08/16 12:00:24;;;;;;;6.70;2.83;;;28.50;78.70;;;;;;10013873;28;20597;-66
2022/08/16 12:05:16;;;;;;;5.13;3.33;;;28.50;78.30;;;;;;9995278;28;20075;-67
2022/08/16 12:10:10;;;;;;;5.90;4.13;;;28.80;77.70;;;;;;10011804;28;20029;-67
2022/08/16 12:15:01;;;;;;;4.20;3.42;;;28.90;76.70;;;;;;10014023;28;20021;-67
2022/08/16 12:19:51;;;;;;;3.85;3.30;;;29.10;76.30;;;;;;10014549;28;20274;-66
2022/08/16 12:24:42;;;;;;;5.55;3.53;;;29.30;75.60;;;;;;10014846;28;20021;-65
2022/08/16 12:29:34;;;;;;;7.00;3.55;;;29.80;75.00;;;;;;10002746;28;20562;-66
2022/08/16 12:34:25;;;;;;;3.70;3.28;;;30.20;74.60;;;;;;10016711;28;20022;-66
2022/08/16 12:39:19;;;;;;;3.22;2.83;;;30.20;74.20;;;;;;10021879;28;20058;-66
2022/08/16 12:44:09;;;;;;;6.28;3.55;;;30.40;74.20;;;;;;10014407;28;20022;-65
2022/08/16 12:49:02;;;;;;;3.60;3.22;;;31.10;73.80;;;;;;10014311;28;20112;-66
2022/08/16 12:53:56;;;;;;;3.50;3.20;;;31.90;73.20;;;;;;9996662;28;20172;-65
2022/08/16 12:58:49;;;;;;;3.38;3.03;;;32.30;72.40;;;;;;10013263;28;20120;-66
2022/08/16 13:03:40;;;;;;;4.50;3.30;;;32.60;71.60;;;;;;10011676;28;20025;-67
2022/08/16 13:08:31;;;;;;;8.13;3.53;;;33.00;70.80;;;;;;10012464;28;20056;-67
2022/08/16 13:13:24;;;;;;;6.55;3.47;;;33.30;69.80;;;;;;10012443;28;20487;-67
2022/08/16 13:18:14;;;;;;;3.55;2.95;;;34.20;67.70;;;;;;10012367;28;20029;-65
2022/08/16 13:23:10;;;;;;;4.47;3.25;;;35.10;65.40;;;;;;10008240;28;20029;-65
2022/08/16 13:28:00;;;;;;;4.57;2.90;;;35.80;62.90;;;;;;9998981;28;20033;-65
2022/08/16 13:32:52;;;;;;;3.78;2.90;;;36.70;60.40;;;;;;10012516;28;20022;-65
2022/08/16 13:37:42;;;;;;;3.50;3.20;;;37.20;58.40;;;;;;10021104;28;20054;-65
2022/08/16 13:42:33;;;;;;;3.97;3.03;;;38.00;56.30;;;;;;10013528;28;20037;-67
2022/08/16 13:47:25;;;;;;;2.78;2.58;;;38.60;54.60;;;;;;9994938;28;20030;-65
2022/08/16 13:52:16;;;;;;;3.20;2.90;;;38.50;53.10;;;;;;10012674;28;20438;-65
2022/08/16 13:57:07;;;;;;;4.47;2.92;;;38.00;52.20;;;;;;10012487;28;20026;-67
2022/08/16 14:01:58;;;;;;;6.13;2.80;;;38.10;52.30;;;;;;10011846;28;20038;-66
2022/08/16 14:06:49;;;;;;;4.30;2.97;;;39.10;50.70;;;;;;10013093;28;20117;-65
2022/08/16 14:11:39;;;;;;;3.60;3.05;;;39.50;49.40;;;;;;10018937;28;20125;-65
2022/08/16 14:16:30;;;;;;;3.35;3.05;;;39.50;48.90;;;;;;10018780;28;20030;-65
2022/08/16 14:21:22;;;;;;;3.10;2.90;;;39.90;48.20;;;;;;10019108;28;20034;-65
2022/08/16 14:26:12;;;;;;;3.33;3.03;;;39.80;47.70;;;;;;10015748;28;20022;-66
2022/08/16 14:31:03;;;;;;;2.72;2.53;;;39.70;47.20;;;;;;10008921;28;20033;-66
2022/08/16 14:35:54;;;;;;;2.72;2.53;;;40.20;46.30;;;;;;10006926;28;20052;-65
2022/08/16 14:40:46;;;;;;;3.50;2.55;;;39.90;46.10;;;;;;10026279;28;20045;-65
2022/08/16 14:45:37;;;;;;;3.58;2.88;;;40.10;45.40;;;;;;10018654;28;20022;-66
2022/08/16 14:50:28;;;;;;;3.00;2.70;;;39.80;45.10;;;;;;10019207;28;20476;-65
2022/08/16 14:55:18;;;;;;;2.97;2.70;;;40.00;44.70;;;;;;10018894;28;20167;-66
2022/08/16 15:00:11;;;;;;;3.67;2.35;;;40.10;44.30;;;;;;10017838;28;20164;-64
2022/08/16 15:05:03;;;;;;;3.03;2.60;;;40.10;44.10;;;;;;10017908;28;20026;-65
2022/08/16 15:09:53;;;;;;;3.42;3.03;;;40.30;43.60;;;;;;10017468;28;20032;-64
2022/08/16 15:14:47;;;;;;;3.05;2.67;;;39.90;43.60;;;;;;10016817;28;20403;-67
2022/08/16 15:19:38;;;;;;;5.65;3.28;;;39.60;43.40;;;;;;10017471;28;20069;-65
2022/08/16 15:24:29;;;;;;;3.63;2.95;;;40.20;43.00;;;;;;10017501;28;20037;-66
2022/08/16 15:29:20;;;;;;;3.88;2.50;;;40.60;42.70;;;;;;9986569;28;20108;-65
2022/08/16 15:34:11;;;;;;;4.70;3.20;;;41.00;42.00;;;;;;10016822;28;20109;-65
2022/08/16 15:39:02;;;;;;;5.53;4.10;;;40.90;41.90;;;;;;10023633;28;20530;-66
2022/08/16 15:43:53;;;;;;;5.55;4.25;;;40.30;42.10;;;;;;10017653;28;20060;-67
2022/08/16 15:48:44;;;;;;;3.90;3.47;;;40.70;41.70;;;;;;10016699;28;20030;-66
2022/08/16 15:53:34;;;;;;;3.72;3.10;;;41.60;40.90;;;;;;10016096;28;20061;-66
2022/08/16 15:58:28;;;;;;;5.47;3.42;;;42.80;40.40;;;;;;10015893;28;20026;-66
2022/08/16 16:03:21;;;;;;;4.13;3.58;;;43.60;39.80;;;;;;10016764;28;20089;-66
2022/08/16 16:08:13;;;;;;;5.45;2.88;;;44.20;39.40;;;;;;9997495;28;20022;-65
2022/08/16 16:13:05;;;;;;;3.95;3.03;;;44.60;38.80;;;;;;10015553;28;20034;-67
2022/08/16 16:17:56;;;;;;;4.65;3.38;;;44.80;38.50;;;;;;10014117;28;20389;-66
2022/08/16 16:22:48;;;;;;;4.45;3.20;;;45.20;38.00;;;;;;10013564;28;20030;-66
2022/08/16 16:27:38;;;;;;;3.95;3.20;;;44.70;37.90;;;;;;9982928;28;20041;-66
2022/08/16 16:32:30;;;;;;;4.78;3.28;;;44.80;37.50;;;;;;10012956;28;20024;-66
2022/08/16 16:37:20;;;;;;;5.82;3.42;;;45.10;37.20;;;;;;10020922;28;20073;-66
2022/08/16 16:42:11;;;;;;;4.53;2.70;;;45.40;36.60;;;;;;10013810;28;20198;-67
2022/08/16 16:47:03;;;;;;;3.22;2.92;;;44.60;36.60;;;;;;10013909;28;20451;-67
2022/08/16 16:51:54;;;;;;;4.53;3.13;;;43.70;36.90;;;;;;10013526;28;20097;-67
2022/08/16 16:56:44;;;;;;;3.60;2.70;;;44.20;36.50;;;;;;10012920;28;20073;-67
2022/08/16 17:01:46;;;;;;;4.35;2.97;;;44.30;36.40;;;;;;10013052;28;20080;-66
2022/08/16 17:06:38;;;;;;;3.80;3.10;;;43.90;36.50;;;;;;10012331;28;20089;-67
2022/08/16 17:11:29;;;;;;;3.30;2.78;;;43.30;36.90;;;;;;10014004;28;20480;-67
2022/08/16 17:16:21;;;;;;;3.83;3.05;;;43.20;37.20;;;;;;10013148;28;20188;-67
2022/08/16 17:21:12;;;;;;;6.72;3.72;;;44.00;36.30;;;;;;10014822;28;20038;-66
2022/08/16 17:26:03;;;;;;;;;;;43.80;36.20;;;;;;10013674;28;20072;-66
2022/08/16 17:30:54;;;;;;;3.13;2.63;;;42.80;36.90;;;;;;10005973;28;19913;-66
2022/08/16 17:35:45;;;;;;;3.90;3.10;;;40.40;38.10;;;;;;10011687;28;20077;-66
2022/08/16 17:40:41;;;;;;;5.15;3.13;;;37.20;40.50;;;;;;10015089;28;20061;-67
2022/08/16 17:45:32;;;;;;;5.57;3.10;;;35.50;41.80;;;;;;10025556;28;20057;-68
2022/08/16 17:50:23;;;;;;;3.20;2.35;;;34.40;42.60;;;;;;10025513;28;20025;-67
2022/08/16 17:55:19;;;;;;;4.63;3.63;;;33.70;43.10;;;;;;10025215;28;20064;-66
2022/08/16 18:00:13;;;;;;;7.32;4.65;;;33.40;43.50;;;;;;10025216;28;20045;-67
2022/08/16 18:05:04;;;;;;;5.90;3.20;;;33.20;43.80;;;;;;10025263;28;20111;-66
2022/08/16 18:09:55;;;;;;;7.55;4.20;;;32.90;44.10;;;;;;10025311;28;20685;-68
2022/08/16 18:14:47;;;;;;;7.65;4.05;;;32.70;44.40;;;;;;10024008;28;20113;-66
2022/08/16 18:19:38;;;;;;;5.10;3.70;;;32.50;44.80;;;;;;10007522;28;20096;-67
2022/08/16 18:24:29;;;;;;;3.95;3.47;;;32.20;45.50;;;;;;10025270;28;20018;-67
2022/08/16 18:29:20;;;;;;;4.82;3.08;;;31.90;46.10;;;;;;10011738;28;20515;-67
2022/08/16 18:34:10;;;;;;;4.70;3.90;;;31.80;46.60;;;;;;10026195;28;20107;-66
2022/08/16 18:39:01;;;;;;;6.07;3.60;;;31.70;47.10;;;;;;10033736;28;20076;-67
2022/08/16 18:43:52;;;;;;;5.53;3.55;;;31.50;47.50;;;;;;10008227;28;20054;-68
2022/08/16 18:48:43;;;;;;;8.38;5.60;;;31.30;47.90;;;;;;10019945;28;20033;-66
2022/08/16 18:53:34;;;;;;;9.48;6.32;;;31.30;48.10;;;;;;10001710;28;20388;-67
2022/08/16 18:58:29;;;;;;;8.07;6.00;;;31.00;48.60;;;;;;10014960;28;20030;-67
2022/08/16 19:03:22;;;;;;;8.55;5.53;;;30.90;49.00;;;;;;10018997;28;20034;-66
2022/08/16 19:08:14;;;;;;;8.05;5.65;;;30.80;49.40;;;;;;10018549;28;20033;-67
2022/08/16 19:13:08;;;;;;;7.93;5.05;;;30.70;49.60;;;;;;10018497;28;20036;-68
2022/08/16 19:17:59;;;;;;;;;;;30.50;50.00;;;;;;10018039;28;20022;-67
2022/08/16 19:22:51;;;;;;;6.88;4.43;;;30.50;50.10;;;;;;10018694;28;19914;-67
2022/08/16 19:27:42;;;;;;;4.80;3.75;;;30.50;50.00;;;;;;10005186;28;20113;-67
2022/08/16 19:32:36;;;;;;;6.63;4.32;;;30.50;50.40;;;;;;10018212;28;20101;-68
2022/08/16 19:37:26;;;;;;;6.95;3.75;;;30.40;50.70;;;;;;10017329;28;20073;-66
2022/08/16 19:42:21;;;;;;;5.13;3.58;;;30.30;51.00;;;;;;9998783;28;20427;-66
2022/08/16 19:47:12;;;;;;;5.75;3.90;;;30.20;51.40;;;;;;10029798;23;20058;-70
2022/08/16 19:52:23;;;;;;;6.22;3.80;;;30.00;51.80;;;;;;10015439;28;20034;-65
2022/08/16 19:57:19;;;;;;;4.63;3.97;;;30.00;52.10;;;;;;10016067;28;20030;-66
2022/08/16 20:02:21;;;;;;;4.72;3.70;;;29.90;52.20;;;;;;10015863;28;20117;-63
2022/08/16 20:07:12;;;;;;;6.53;4.22;;;29.70;52.50;;;;;;10002785;28;20290;-60
2022/08/16 20:12:13;;;;;;;8.07;4.45;;;29.50;52.80;;;;;;10012802;28;20030;-60
2022/08/16 20:17:03;;;;;;;6.43;3.80;;;29.50;53.00;;;;;;10010220;28;20036;-67
2022/08/16 20:21:55;;;;;;;5.40;3.80;;;29.50;53.00;;;;;;10012786;28;20479;-65
2022/08/16 20:26:46;;;;;;;3.60;3.30;;;29.50;53.20;;;;;;10014865;28;20026;-63
2022/08/16 20:31:37;;;;;;;4.18;3.63;;;29.50;53.40;;;;;;10015127;28;20034;-67
2022/08/16 20:36:28;;;;;;;4.03;3.50;;;29.40;53.60;;;;;;10011324;28;20026;-63
2022/08/16 20:41:19;;;;;;;7.93;4.30;;;29.30;53.90;;;;;;10013687;28;20050;-67
2022/08/16 20:46:09;;;;;;;5.50;3.53;;;29.30;54.10;;;;;;10013103;28;20046;-61
2022/08/16 20:51:00;;;;;;;6.18;4.05;;;29.30;54.20;;;;;;10014384;28;20029;-63
2022/08/16 20:55:51;;;;;;;5.35;3.53;;;29.20;54.30;;;;;;10014779;28;20022;-66
2022/08/16 21:00:42;;;;;;;4.15;3.65;;;29.10;54.50;;;;;;10013053;28;20496;-61
2022/08/16 21:05:33;;;;;;;4.38;3.58;;;28.90;54.80;;;;;;10012725;28;20441;-60
2022/08/16 21:10:23;;;;;;;6.45;5.35;;;28.90;54.90;;;;;;10016858;28;20076;-63
2022/08/16 21:15:16;;;;;;;5.43;4.22;;;28.80;55.00;;;;;;10012117;28;20618;-61
2022/08/16 21:20:07;;;;;;;7.15;4.68;;;28.70;55.10;;;;;;10012586;28;20544;-60
2022/08/16 21:24:58;;;;;;;4.97;3.92;;;28.50;55.50;;;;;;10012449;28;20024;-59
2022/08/16 21:29:50;;;;;;;6.35;4.40;;;28.40;55.70;;;;;;9999857;28;20038;-62
2022/08/16 21:34:41;;;;;;;7.75;4.35;;;28.30;56.10;;;;;;10012985;28;20034;-61
2022/08/16 21:39:32;;;;;;;8.77;4.15;;;28.20;56.20;;;;;;10012789;28;20073;-60
2022/08/16 21:44:23;;;;;;;7.25;5.13;;;28.20;56.50;;;;;;10012567;28;20022;-61
2022/08/16 21:49:14;;;;;;;5.40;3.88;;;28.10;56.80;;;;;;10012543;28;20046;-63
2022/08/16 21:54:04;;;;;;;5.78;3.65;;;28.10;57.10;;;;;;10011886;28;20022;-60
2022/08/16 21:58:55;;;;;;;5.10;4.13;;;28.00;57.70;;;;;;10012232;28;20029;-60
2022/08/16 22:03:46;;;;;;;10.68;4.30;;;27.90;58.00;;;;;;10012219;28;20076;-63
2022/08/16 22:08:36;;;;;;;5.82;3.38;;;27.90;58.30;;;;;;10018931;28;20029;-61
2022/08/16 22:13:28;;;;;;;4.85;3.92;;;28.00;58.10;;;;;;10011662;28;20248;-60
2022/08/16 22:18:20;;;;;;;8.23;4.25;;;28.00;58.20;;;;;;10011396;28;20431;-60
2022/08/16 22:23:22;;;;;;;5.28;4.05;;;27.90;58.70;;;;;;10011339;28;20068;-65
2022/08/16 22:28:13;;;;;;;9.48;5.05;;;27.60;59.50;;;;;;10012051;28;20030;-62
2022/08/16 22:33:15;;;;;;;7.10;4.57;;;27.60;59.40;;;;;;10018703;28;20116;-64
2022/08/16 22:38:06;;;;;;;7.13;5.07;;;27.60;59.50;;;;;;10018525;28;20033;-62
2022/08/16 22:42:57;;;;;;;7.25;5.15;;;27.40;60.10;;;;;;10015564;28;20497;-60
2022/08/16 22:47:48;;;;;;;6.68;5.18;;;27.10;60.80;;;;;;10018845;28;20747;-62
2022/08/16 22:52:49;;;;;;;9.13;4.93;;;27.10;60.90;;;;;;10018623;28;20297;-62
2022/08/16 22:57:40;;;;;;;7.68;4.10;;;27.20;61.00;;;;;;10017994;28;20447;-60
2022/08/16 23:02:31;;;;;;;6.32;5.43;;;27.10;61.00;;;;;;10018132;28;20034;-61
2022/08/16 23:07:21;;;;;;;4.22;3.83;;;26.90;61.30;;;;;;10020588;28;20020;-61
2022/08/16 23:12:13;;;;;;;7.22;4.60;;;26.80;61.70;;;;;;10023409;28;20037;-60
2022/08/16 23:17:04;;;;;;;5.72;4.78;;;26.70;61.70;;;;;;10018636;28;20026;-59
2022/08/16 23:21:56;;;;;;;6.45;4.88;;;26.70;62.10;;;;;;10018363;28;20338;-59
2022/08/16 23:26:46;;;;;;;5.85;5.18;;;26.60;62.10;;;;;;10009752;28;20100;-60
2022/08/16 23:31:37;;;;;;;5.18;4.47;;;26.50;62.60;;;;;;10013268;28;20586;-60
2022/08/16 23:36:28;;;;;;;7.28;4.75;;;26.40;63.00;;;;;;10016899;28;20013;-61
2022/08/16 23:41:19;;;;;;;5.63;4.13;;;26.40;63.10;;;;;;10016634;28;20049;-60
2022/08/16 23:46:16;;;;;;;6.05;4.57;;;26.30;63.50;;;;;;10016450;28;20031;-61
2022/08/16 23:51:12;;;;;;;6.05;4.88;;;26.10;63.90;;;;;;10012186;28;20034;-62
2022/08/16 23:56:06;;;;;;;6.47;4.78;;;26.10;64.20;;;;;;10015627;28;20101;-60
